createdAt,value
2023-05-08T00:03:43.160Z,101924.38
2023-05-08T00:13:51.077Z,101923.31
2023-05-08T00:23:53.203Z,101933.09
2023-05-08T00:33:55.070Z,101938.34
2023-05-08T00:43:56.955Z,101939.50
2023-05-08T00:54:00.227Z,101951.41
2023-05-08T01:04:03.915Z,101964.94
2023-05-08T01:15:00.236Z,101973.19
2023-05-08T01:25:17.100Z,101982.03
2023-05-08T01:35:37.010Z,101987.78
2023-05-08T01:45:41.914Z,101995.41
2023-05-08T01:55:44.815Z,101992.72
2023-05-08T02:05:49.207Z,102000.41
2023-05-08T02:15:55.190Z,102003.41
2023-05-08T02:25:57.961Z,102001.50
2023-05-08T02:36:02.721Z,102002.75
2023-05-08T02:46:14.309Z,101997.44
2023-05-08T02:56:33.125Z,102006.97
2023-05-08T03:06:45.368Z,102010.88
2023-05-08T03:16:50.756Z,102022.19
2023-05-08T03:26:52.910Z,102026.25
2023-05-08T03:36:55.742Z,102028.75
2023-05-08T03:46:58.762Z,102027.53
2023-05-08T03:57:01.122Z,102026.66
2023-05-08T04:07:31.994Z,102047.13
2023-05-08T04:17:42.971Z,102059.81
2023-05-08T04:27:46.614Z,102065.75
2023-05-08T04:37:48.652Z,102073.47
2023-05-08T04:47:50.787Z,102078.13
2023-05-08T04:57:52.823Z,102085.91
2023-05-08T05:07:54.810Z,102104.28
2023-05-08T05:17:57.841Z,102102.03
2023-05-08T05:28:02.675Z,102107.56
2023-05-08T05:38:05.825Z,102109.50
2023-05-08T05:48:08.062Z,102108.91
2023-05-08T05:58:10.131Z,102116.53
2023-05-08T06:08:12.369Z,102111.19
2023-05-08T06:18:14.475Z,102110.13
2023-05-08T06:28:16.546Z,102112.19
2023-05-08T06:38:19.297Z,102125.09
2023-05-08T06:48:29.534Z,102116.84
2023-05-08T06:58:39.619Z,102108.59
2023-05-08T07:08:57.059Z,102117.78
2023-05-08T07:19:00.067Z,102109.44
2023-05-08T07:29:04.076Z,102125.09
2023-05-08T07:39:11.187Z,102127.16
2023-05-08T07:49:14.235Z,102122.84
2023-05-08T07:59:23.399Z,102126.00
2023-05-08T08:09:31.491Z,102129.00
2023-05-08T08:19:47.523Z,102122.78
2023-05-08T08:30:12.884Z,102101.00
2023-05-08T08:40:18.792Z,102093.75
2023-05-08T08:50:22.963Z,102094.41
2023-05-08T09:00:31.115Z,102085.25
2023-05-08T09:10:39.897Z,102088.22
2023-05-08T09:20:45.012Z,102092.09
2023-05-08T09:30:52.015Z,102085.19
2023-05-08T09:41:19.941Z,102084.22
2023-05-08T09:51:22.565Z,102075.09
2023-05-08T10:01:32.151Z,102061.63
2023-05-08T10:11:58.839Z,102050.50
2023-05-08T10:22:02.629Z,102023.13
2023-05-08T10:32:20.513Z,102034.75
2023-05-08T10:42:22.494Z,102028.72
2023-05-08T10:52:50.808Z,102033.00
2023-05-08T11:02:52.944Z,102019.75
2023-05-08T11:12:55.329Z,102012.25
2023-05-08T11:23:27.581Z,102006.19
2023-05-08T11:33:41.300Z,101999.28
2023-05-08T11:43:55.123Z,102001.25
2023-05-08T11:54:01.407Z,101988.50
2023-05-08T12:04:13.676Z,101982.53
2023-05-08T12:14:18.308Z,101969.28
2023-05-08T12:24:23.648Z,101964.81
2023-05-08T12:34:40.017Z,101965.97
2023-05-08T12:44:51.564Z,101959.13
2023-05-08T12:54:54.233Z,101951.53
2023-05-08T13:04:56.492Z,101936.69
2023-05-08T13:15:26.416Z,101932.16
2023-05-08T13:25:29.027Z,101928.69
2023-05-08T13:35:31.675Z,101931.88
2023-05-08T13:45:33.653Z,101910.94
2023-05-08T13:55:36.930Z,101889.16
2023-05-08T14:05:48.997Z,101877.53
2023-05-08T14:15:51.189Z,101887.88
2023-05-08T14:25:53.349Z,101898.75
2023-05-08T14:36:19.293Z,101885.72
2023-05-08T14:46:21.311Z,101878.81
2023-05-08T14:56:26.541Z,101879.09
2023-05-08T15:06:28.931Z,101873.53
2023-05-08T15:16:55.544Z,101882.84
2023-05-08T15:26:59.536Z,101886.03
2023-05-08T15:37:20.632Z,101876.47
2023-05-08T15:47:23.519Z,101878.56
2023-05-08T15:57:27.342Z,101866.91
2023-05-08T16:07:35.265Z,101856.84
2023-05-08T16:18:03.171Z,101849.16
2023-05-08T16:28:05.195Z,101848.91
2023-05-08T16:38:11.245Z,101857.91
2023-05-08T16:48:13.540Z,101849.16
2023-05-08T16:58:18.517Z,101859.97
2023-05-08T17:08:22.511Z,101859.69
2023-05-08T17:18:28.376Z,101860.44
2023-05-08T17:28:30.361Z,101860.91
2023-05-08T17:38:36.553Z,101864.00
2023-05-08T17:48:42.547Z,101867.56
2023-05-08T17:58:45.580Z,101874.59
2023-05-08T18:08:48.053Z,101882.88
2023-05-08T18:18:50.447Z,101906.09
2023-05-08T18:28:52.391Z,101907.84
2023-05-08T18:39:26.354Z,101912.91
2023-05-08T18:49:28.288Z,101925.59
2023-05-08T18:59:30.243Z,101937.34
2023-05-08T19:09:33.857Z,101943.28
2023-05-08T19:19:37.243Z,101952.03
2023-05-08T19:29:47.273Z,101952.13
2023-05-08T19:39:49.482Z,101945.69
2023-05-08T19:49:51.566Z,101950.81
2023-05-08T20:00:16.572Z,101940.59
2023-05-08T20:10:18.657Z,101935.69
2023-05-08T20:20:22.212Z,101928.81
2023-05-08T20:30:24.244Z,101929.53
2023-05-08T20:40:37.009Z,101933.28
2023-05-08T20:50:42.183Z,101925.59
2023-05-08T21:00:51.133Z,101930.47
2023-05-08T21:11:04.445Z,101917.63
2023-05-08T21:21:17.723Z,101918.94
2023-05-08T21:31:23.991Z,101918.31
2023-05-08T21:41:28.969Z,101920.53
2023-05-08T21:51:33.284Z,101921.56
2023-05-08T22:01:35.374Z,101923.97
2023-05-08T22:11:37.442Z,101915.34
2023-05-08T22:21:39.348Z,101912.31
2023-05-08T22:31:41.354Z,101910.91
2023-05-08T22:41:43.673Z,101913.50
2023-05-08T22:51:46.725Z,101913.84
2023-05-08T23:01:51.264Z,101913.22
2023-05-08T23:12:03.247Z,101914.81
2023-05-08T23:22:05.195Z,101912.16
2023-05-08T23:32:07.163Z,101905.75
2023-05-08T23:42:11.543Z,101911.63
2023-05-08T23:52:13.938Z,101909.00
